Time;durP1;ratioP1;P1;durP2;ratioP2;P2;SDS_P1;SDS_P2;PMS_P1;PMS_P2;Temp;Humidity;BMP_temperature;BMP_pressure;BME280_temperature;BME280_humidity;BME280_pressure;Samples;Min_cycle;Max_cycle;Signal;HPM_P1;HPM_P2
2022/03/20 00:01:11;;;;;;;0.10;0.10;;;;;;;;;;5030722;28;20244;-77
2022/03/20 00:03:43;;;;;;;0.10;0.10;;;;;;;;;;5022853;28;20456;-76
2022/03/20 00:06:14;;;;;;;0.10;0.10;;;;;;;;;;5017468;28;20245;-76
2022/03/20 00:08:52;;;;;;;0.53;0.53;;;;;;;;;;5001439;28;20260;-76
2022/03/20 00:11:20;;;;;;;0.73;0.73;;;;;;;;;;4980562;28;20249;-74
2022/03/20 00:13:52;;;;;;;0.10;0.10;;;;;;;;;;4994513;28;20522;-74
2022/03/20 00:16:21;;;;;;;0.10;0.10;;;;;;;;;;4981935;28;20249;-74
2022/03/20 00:19:02;;;;;;;3.57;3.37;;;;;;;;;;4977782;28;20210;-76
2022/03/20 00:21:34;;;;;;;4.90;4.60;;;;;;;;;;4974722;28;20267;-75
2022/03/20 00:24:07;;;;;;;0.47;0.47;;;;;;;;;;5016699;28;20403;-75
2022/03/20 00:26:39;;;;;;;0.20;0.20;;;;;;;;;;5020537;28;20220;-76
2022/03/20 00:29:06;;;;;;;0.63;0.63;;;;;;;;;;5020645;28;20252;-75
2022/03/20 00:31:34;;;;;;;0.20;0.20;;;;;;;;;;5010089;28;20251;-74
2022/03/20 00:34:01;;;;;;;0.10;0.10;;;;;;;;;;5020263;28;20236;-74
2022/03/20 00:36:27;;;;;;;0.53;0.53;;;;;;;;;;5010301;28;20301;-74
2022/03/20 00:38:53;;;;;;;0.10;0.10;;;;;;;;;;5063397;28;20205;-73
2022/03/20 00:41:20;;;;;;;1.07;1.07;;;;;;;;;;5092696;28;20246;-74
2022/03/20 00:43:46;;;;;;;0.30;0.30;;;;;;;;;;5106205;28;20205;-75
2022/03/20 00:46:13;;;;;;;0.20;0.20;;;;;;;;;;5095183;28;20252;-79
2022/03/20 00:48:40;;;;;;;0.20;0.20;;;;;;;;;;5105979;28;20260;-78
2022/03/20 00:51:10;;;;;;;0.10;0.10;;;;;;;;;;5095130;28;20492;-79
2022/03/20 00:53:37;;;;;;;0.20;0.20;;;;;;;;;;5105926;28;20413;-78
2022/03/20 00:56:03;;;;;;;0.10;0.10;;;;;;;;;;5095177;28;20241;-79
2022/03/20 00:58:29;;;;;;;0.50;0.50;;;;;;;;;;5105693;28;20206;-78
2022/03/20 01:00:56;;;;;;;0.30;0.30;;;;;;;;;;5095236;28;20238;-78
2022/03/20 01:03:22;;;;;;;0.20;0.20;;;;;;;;;;5105520;28;20259;-78
2022/03/20 01:05:49;;;;;;;0.20;0.20;;;;;;;;;;5095147;28;20251;-79
2022/03/20 01:08:17;;;;;;;0.10;0.10;;;;;;;;;;5105373;28;20210;-78
2022/03/20 01:10:44;;;;;;;0.20;0.20;;;;;;;;;;5095036;28;20242;-78
2022/03/20 01:13:11;;;;;;;0.93;0.93;;;;;;;;;;5104916;28;20520;-78
2022/03/20 01:15:38;;;;;;;0.10;0.10;;;;;;;;;;5095292;28;20260;-79
2022/03/20 01:18:04;;;;;;;0.10;0.10;;;;;;;;;;5105034;28;20210;-77
2022/03/20 01:20:30;;;;;;;1.97;1.90;;;;;;;;;;5095245;28;20240;-78
2022/03/20 01:22:58;;;;;;;0.20;0.20;;;;;;;;;;5104902;28;20240;-79
2022/03/20 01:25:24;;;;;;;0.20;0.20;;;;;;;;;;5095231;28;20205;-77
2022/03/20 01:27:51;;;;;;;0.30;0.30;;;;;;;;;;5104679;28;20409;-78
2022/03/20 01:30:17;;;;;;;0.20;0.20;;;;;;;;;;5095003;28;20206;-79
2022/03/20 01:32:43;;;;;;;0.13;0.13;;;;;;;;;;5104562;28;20230;-78
2022/03/20 01:35:10;;;;;;;0.10;0.10;;;;;;;;;;5094746;28;20229;-79
2022/03/20 01:37:36;;;;;;;1.63;1.63;;;;;;;;;;5104446;28;20406;-78
2022/03/20 01:40:04;;;;;;;0.37;0.37;;;;;;;;;;5105459;28;20265;-79
2022/03/20 01:42:32;;;;;;;0.20;0.20;;;;;;;;;;5077069;28;20219;-78
2022/03/20 01:44:58;;;;;;;0.20;0.20;;;;;;;;;;5105438;28;20201;-78
2022/03/20 01:47:24;;;;;;;0.40;0.40;;;;;;;;;;5093523;28;20241;-78
2022/03/20 01:49:51;;;;;;;0.20;0.20;;;;;;;;;;5105020;28;20207;-78
2022/03/20 01:52:24;;;;;;;0.10;0.10;;;;;;;;;;5093189;28;20237;-78
2022/03/20 01:54:51;;;;;;;1.17;1.17;;;;;;;;;;5104970;28;20389;-78
2022/03/20 01:57:20;;;;;;;0.10;0.10;;;;;;;;;;5093539;28;20237;-78
2022/03/20 01:59:49;;;;;;;0.20;0.20;;;;;;;;;;5104705;28;20212;-78
2022/03/20 02:02:16;;;;;;;0.10;0.10;;;;;;;;;;5076277;28;20268;-79
2022/03/20 02:04:42;;;;;;;1.03;1.03;;;;;;;;;;5105053;28;20210;-78
2022/03/20 02:07:09;;;;;;;0.17;0.17;;;;;;;;;;5093545;28;20300;-79
2022/03/20 02:09:35;;;;;;;0.20;0.20;;;;;;;;;;5104346;28;20263;-77
2022/03/20 02:12:02;;;;;;;0.30;0.30;;;;;;;;;;5092915;28;20315;-78
2022/03/20 02:14:31;;;;;;;0.20;0.20;;;;;;;;;;5104735;28;20204;-78
2022/03/20 02:16:58;;;;;;;0.20;0.20;;;;;;;;;;5093292;28;20260;-78
2022/03/20 02:19:25;;;;;;;0.20;0.20;;;;;;;;;;5104625;28;20210;-79
2022/03/20 02:21:54;;;;;;;0.20;0.20;;;;;;;;;;5093055;28;20245;-79
2022/03/20 02:24:28;;;;;;;0.30;0.30;;;;;;;;;;5104504;28;20508;-78
2022/03/20 02:27:01;;;;;;;0.43;0.43;;;;;;;;;;5093262;28;20246;-79
2022/03/20 02:29:28;;;;;;;0.20;0.20;;;;;;;;;;5104350;28;20204;-79
2022/03/20 02:31:54;;;;;;;0.20;0.20;;;;;;;;;;5092873;28;20246;-78
2022/03/20 02:34:23;;;;;;;8.63;8.00;;;;;;;;;;5103988;28;20225;-78
2022/03/20 02:36:49;;;;;;;0.10;0.10;;;;;;;;;;5092849;28;20238;-78
2022/03/20 02:39:17;;;;;;;0.20;0.20;;;;;;;;;;5104172;28;20234;-79
2022/03/20 02:41:45;;;;;;;0.33;0.33;;;;;;;;;;5092899;28;20290;-79
2022/03/20 02:44:13;;;;;;;0.40;0.40;;;;;;;;;;5104049;28;20202;-78
2022/03/20 02:46:40;;;;;;;0.20;0.20;;;;;;;;;;5092745;28;20257;-78
2022/03/20 02:49:06;;;;;;;0.20;0.20;;;;;;;;;;5103903;28;20414;-79
2022/03/20 02:51:34;;;;;;;0.83;0.83;;;;;;;;;;5092560;28;20263;-78
2022/03/20 02:54:00;;;;;;;0.20;0.20;;;;;;;;;;5103486;28;20226;-77
2022/03/20 02:56:28;;;;;;;0.20;0.20;;;;;;;;;;5092723;28;20631;-79
2022/03/20 02:58:55;;;;;;;1.43;1.43;;;;;;;;;;5103510;28;20240;-78
2022/03/20 03:01:21;;;;;;;0.60;0.60;;;;;;;;;;5092077;28;20425;-78
2022/03/20 03:03:47;;;;;;;0.13;0.13;;;;;;;;;;5103168;28;20197;-79
2022/03/20 03:06:14;;;;;;;0.20;0.20;;;;;;;;;;5092645;28;20240;-79
2022/03/20 03:11:24;;;;;;;1.03;1.03;;;;;;;;;;5092736;28;20459;-79
2022/03/20 03:13:52;;;;;;;0.20;0.20;;;;;;;;;;5103004;28;20223;-78
2022/03/20 03:16:18;;;;;;;0.20;0.20;;;;;;;;;;5092688;28;20241;-79
2022/03/20 03:18:45;;;;;;;0.20;0.20;;;;;;;;;;5103284;28;20281;-78
2022/03/20 03:21:12;;;;;;;0.43;0.43;;;;;;;;;;5092526;28;20245;-78
2022/03/20 03:23:43;;;;;;;0.20;0.20;;;;;;;;;;5102851;28;20276;-78
2022/03/20 03:26:09;;;;;;;0.10;0.10;;;;;;;;;;5092321;28;20321;-79
2022/03/20 03:28:36;;;;;;;0.47;0.47;;;;;;;;;;5102746;28;20209;-79
2022/03/20 03:31:08;;;;;;;0.63;0.63;;;;;;;;;;5074622;28;20291;-78
2022/03/20 03:33:34;;;;;;;0.40;0.40;;;;;;;;;;5102767;28;20216;-78
2022/03/20 03:36:01;;;;;;;0.20;0.20;;;;;;;;;;5092215;28;20240;-78
2022/03/20 03:38:30;;;;;;;0.20;0.20;;;;;;;;;;5102634;28;20433;-78
2022/03/20 03:40:56;;;;;;;0.20;0.20;;;;;;;;;;5092491;28;20274;-78
2022/03/20 03:43:23;;;;;;;0.20;0.20;;;;;;;;;;5102444;28;20200;-78
2022/03/20 03:45:50;;;;;;;0.20;0.20;;;;;;;;;;5092336;28;20305;-79
2022/03/20 03:48:17;;;;;;;0.50;0.50;;;;;;;;;;5102818;28;20242;-79
2022/03/20 03:50:45;;;;;;;0.20;0.20;;;;;;;;;;5092567;28;20285;-78
2022/03/20 03:53:12;;;;;;;0.20;0.20;;;;;;;;;;5102436;28;20240;-79
2022/03/20 03:55:39;;;;;;;0.20;0.20;;;;;;;;;;5092461;28;20312;-78
2022/03/20 03:58:06;;;;;;;0.10;0.10;;;;;;;;;;5102144;28;20225;-78
2022/03/20 04:00:33;;;;;;;0.20;0.20;;;;;;;;;;5092493;28;20240;-79
2022/03/20 04:02:59;;;;;;;1.07;1.07;;;;;;;;;;5102358;28;20227;-78
2022/03/20 04:05:28;;;;;;;0.47;0.47;;;;;;;;;;5092897;28;20302;-78
2022/03/20 04:07:54;;;;;;;4.03;3.40;;;;;;;;;;5102119;28;20205;-78
2022/03/20 04:10:21;;;;;;;1.20;1.20;;;;;;;;;;5092823;28;20204;-78
2022/03/20 04:12:47;;;;;;;1.30;1.30;;;;;;;;;;5103854;28;20458;-78
2022/03/20 04:15:15;;;;;;;0.30;0.30;;;;;;;;;;5096837;28;20214;-77
2022/03/20 04:17:42;;;;;;;0.37;0.37;;;;;;;;;;5106035;28;20184;-78
2022/03/20 04:20:09;;;;;;;0.20;0.20;;;;;;;;;;5096659;28;20268;-79
2022/03/20 04:22:38;;;;;;;0.20;0.20;;;;;;;;;;5105756;28;20394;-78
2022/03/20 04:25:07;;;;;;;0.20;0.20;;;;;;;;;;5107050;28;20242;-80
2022/03/20 04:27:34;;;;;;;0.10;0.10;;;;;;;;;;5078240;28;20214;-79
2022/03/20 04:30:00;;;;;;;2.27;2.17;;;;;;;;;;5107070;28;20433;-79
2022/03/20 04:32:26;;;;;;;0.20;0.20;;;;;;;;;;5094927;28;20244;-78
2022/03/20 04:34:53;;;;;;;0.63;0.63;;;;;;;;;;5106395;28;20234;-78
2022/03/20 04:37:21;;;;;;;2.03;1.90;;;;;;;;;;5095065;28;20446;-78
2022/03/20 04:39:49;;;;;;;1.37;1.37;;;;;;;;;;5106353;28;20216;-79
2022/03/20 04:42:15;;;;;;;0.97;0.97;;;;;;;;;;5094837;28;20268;-79
2022/03/20 04:44:43;;;;;;;1.70;1.60;;;;;;;;;;5106679;28;20421;-79
2022/03/20 04:58:29;;;;;;;0.30;0.30;;;;;;;;;;5094865;28;20297;-78
2022/03/20 05:00:50;;;;;;;0.20;0.20;;;;;;;;;;5092712;28;20269;-78
2022/03/20 05:03:17;;;;;;;0.20;0.20;;;;;;;;;;5105666;28;20258;-79
2022/03/20 05:05:46;;;;;;;0.20;0.20;;;;;;;;;;5095394;28;20504;-78
2022/03/20 05:08:12;;;;;;;0.20;0.20;;;;;;;;;;5105464;28;20251;-80
2022/03/20 05:13:23;;;;;;;1.13;1.13;;;;;;;;;;5105161;28;20430;-80
2022/03/20 05:15:50;;;;;;;11.40;10.83;;;;;;;;;;5095144;28;20594;-79
2022/03/20 05:18:16;;;;;;;0.20;0.20;;;;;;;;;;5105382;28;20206;-78
2022/03/20 05:20:44;;;;;;;0.20;0.20;;;;;;;;;;5095303;28;20243;-79
2022/03/20 05:23:10;;;;;;;1.33;1.33;;;;;;;;;;5104756;28;20473;-78
2022/03/20 05:25:37;;;;;;;0.20;0.20;;;;;;;;;;5094818;28;20238;-78
2022/03/20 05:28:05;;;;;;;0.20;0.20;;;;;;;;;;5104867;28;20186;-79
2022/03/20 05:30:32;;;;;;;0.30;0.30;;;;;;;;;;5095125;28;20238;-78
2022/03/20 05:32:59;;;;;;;0.20;0.20;;;;;;;;;;5104903;28;20305;-78
2022/03/20 05:35:25;;;;;;;1.07;0.87;;;;;;;;;;5094926;28;20251;-78
2022/03/20 05:37:52;;;;;;;0.20;0.20;;;;;;;;;;5104802;28;20510;-78
2022/03/20 05:40:18;;;;;;;0.87;0.87;;;;;;;;;;5095228;28;20375;-78
2022/03/20 05:42:46;;;;;;;0.20;0.20;;;;;;;;;;5104381;28;20226;-79
2022/03/20 05:45:14;;;;;;;0.20;0.20;;;;;;;;;;5095113;28;20207;-78
2022/03/20 05:47:41;;;;;;;1.27;1.27;;;;;;;;;;5104400;28;20207;-78
2022/03/20 05:50:08;;;;;;;0.20;0.20;;;;;;;;;;5094840;28;20205;-78
2022/03/20 05:52:35;;;;;;;0.20;0.20;;;;;;;;;;5103973;28;20217;-79
2022/03/20 05:55:01;;;;;;;0.53;0.53;;;;;;;;;;5105222;28;20229;-78
2022/03/20 06:00:20;;;;;;;1.03;1.00;;;;;;;;;;5094821;28;20199;-78
2022/03/20 06:02:47;;;;;;;0.30;0.30;;;;;;;;;;5104328;28;20211;-78
2022/03/20 06:05:13;;;;;;;0.20;0.20;;;;;;;;;;5094854;28;20205;-79
2022/03/20 06:07:40;;;;;;;2.10;2.00;;;;;;;;;;5103877;28;20206;-79
2022/03/20 06:10:08;;;;;;;0.90;0.90;;;;;;;;;;5094513;28;20262;-79
2022/03/20 06:12:35;;;;;;;0.20;0.20;;;;;;;;;;5103735;28;20202;-79
2022/03/20 06:15:01;;;;;;;0.20;0.20;;;;;;;;;;5104880;28;20241;-78
2022/03/20 06:17:29;;;;;;;1.70;1.70;;;;;;;;;;5093929;28;20292;-79
2022/03/20 06:19:55;;;;;;;0.20;0.20;;;;;;;;;;5104437;28;20206;-79
2022/03/20 06:22:22;;;;;;;0.30;0.30;;;;;;;;;;5093347;28;20250;-79
2022/03/20 06:24:51;;;;;;;0.20;0.20;;;;;;;;;;5105030;28;20389;-78
2022/03/20 06:27:18;;;;;;;3.50;3.30;;;;;;;;;;5093282;28;20284;-79
2022/03/20 06:29:44;;;;;;;0.47;0.47;;;;;;;;;;5104625;28;20194;-79
2022/03/20 06:32:15;;;;;;;0.20;0.20;;;;;;;;;;5092976;28;20242;-78
2022/03/20 06:34:43;;;;;;;0.20;0.20;;;;;;;;;;5104068;28;20235;-79
2022/03/20 06:37:09;;;;;;;5.73;5.20;;;;;;;;;;5092219;28;20242;-78
2022/03/20 06:39:36;;;;;;;0.27;0.27;;;;;;;;;;5104205;28;20198;-79
2022/03/20 06:42:02;;;;;;;0.37;0.37;;;;;;;;;;5093039;28;20234;-78
2022/03/20 06:44:28;;;;;;;0.20;0.20;;;;;;;;;;5104012;28;20198;-79
2022/03/20 06:46:58;;;;;;;0.93;0.93;;;;;;;;;;5092935;28;20320;-78
2022/03/20 06:49:24;;;;;;;0.20;0.20;;;;;;;;;;5104014;28;20203;-78
2022/03/20 06:51:52;;;;;;;0.20;0.20;;;;;;;;;;5092516;28;20258;-78
2022/03/20 06:54:18;;;;;;;0.30;0.30;;;;;;;;;;5103723;28;20248;-78
2022/03/20 06:56:44;;;;;;;2.40;2.33;;;;;;;;;;5092974;28;20288;-78
2022/03/20 06:59:14;;;;;;;0.90;0.90;;;;;;;;;;5103635;28;20224;-78
2022/03/20 07:01:40;;;;;;;2.10;2.10;;;;;;;;;;5092850;28;20253;-79
2022/03/20 07:04:08;;;;;;;2.23;2.07;;;;;;;;;;5103319;28;20211;-78
2022/03/20 07:06:35;;;;;;;0.20;0.20;;;;;;;;;;5091890;28;20258;-78
2022/03/20 07:09:04;;;;;;;0.20;0.20;;;;;;;;;;5103105;28;20241;-77
2022/03/20 07:11:32;;;;;;;0.30;0.30;;;;;;;;;;5092589;28;20235;-78
2022/03/20 07:13:58;;;;;;;0.20;0.20;;;;;;;;;;5103196;28;20234;-78
2022/03/20 07:16:31;;;;;;;0.73;0.73;;;;;;;;;;5091985;28;20303;-79
2022/03/20 07:19:01;;;;;;;0.23;0.23;;;;;;;;;;5103568;28;20194;-79
2022/03/20 07:21:28;;;;;;;0.20;0.20;;;;;;;;;;5092520;28;20254;-79
2022/03/20 07:23:57;;;;;;;0.20;0.20;;;;;;;;;;5103024;28;20199;-79
2022/03/20 07:31:52;;;;;;;0.47;0.47;;;;;;;;;;5092575;28;20472;-79
2022/03/20 07:34:19;;;;;;;0.40;0.40;;;;;;;;;;5103028;28;20554;-78
2022/03/20 07:36:45;;;;;;;0.13;0.13;;;;;;;;;;5092039;28;20264;-77
2022/03/20 07:39:11;;;;;;;6.80;5.17;;;;;;;;;;5103112;28;20204;-79
2022/03/20 07:41:40;;;;;;;4.67;4.20;;;;;;;;;;5092150;28;20267;-79
2022/03/20 07:44:06;;;;;;;0.20;0.20;;;;;;;;;;5102985;28;20271;-78
2022/03/20 07:46:36;;;;;;;0.20;0.20;;;;;;;;;;5091842;28;20552;-78
2022/03/20 07:49:02;;;;;;;0.20;0.20;;;;;;;;;;5103012;28;20212;-79
2022/03/20 07:51:30;;;;;;;0.20;0.20;;;;;;;;;;5091868;28;20281;-79
2022/03/20 07:53:58;;;;;;;0.10;0.10;;;;;;;;;;5103019;28;20296;-79
2022/03/20 07:56:25;;;;;;;5.23;5.03;;;;;;;;;;5091934;28;20246;-78
2022/03/20 07:58:54;;;;;;;0.27;0.27;;;;;;;;;;5102674;28;20404;-78
2022/03/20 08:01:22;;;;;;;0.10;0.10;;;;;;;;;;5092400;28;20451;-79
2022/03/20 08:03:48;;;;;;;0.33;0.33;;;;;;;;;;5102456;28;20200;-78
2022/03/20 08:06:15;;;;;;;7.73;4.23;;;;;;;;;;5092597;28;20252;-78
2022/03/20 08:08:42;;;;;;;0.10;0.10;;;;;;;;;;5102730;28;20198;-79
2022/03/20 08:11:08;;;;;;;0.10;0.10;;;;;;;;;;5092489;28;20277;-78
2022/03/20 08:13:35;;;;;;;3.13;3.07;;;;;;;;;;5102878;28;20213;-80
2022/03/20 08:16:04;;;;;;;0.20;0.20;;;;;;;;;;5092415;28;20242;-78
2022/03/20 08:18:31;;;;;;;0.10;0.10;;;;;;;;;;5102359;28;20202;-78
2022/03/20 08:20:57;;;;;;;0.10;0.10;;;;;;;;;;5092298;28;20259;-79
2022/03/20 08:23:23;;;;;;;0.10;0.10;;;;;;;;;;5102674;28;20282;-78
2022/03/20 08:25:50;;;;;;;0.43;0.43;;;;;;;;;;5092351;28;20239;-79
2022/03/20 08:28:16;;;;;;;0.30;0.30;;;;;;;;;;5102320;28;20230;-79
2022/03/20 08:30:43;;;;;;;0.60;0.60;;;;;;;;;;5092356;28;20555;-78
2022/03/20 08:33:12;;;;;;;0.10;0.10;;;;;;;;;;5102182;28;20198;-79
2022/03/20 08:35:39;;;;;;;0.97;0.97;;;;;;;;;;5091851;28;20303;-78
2022/03/20 08:38:05;;;;;;;1.17;1.17;;;;;;;;;;5102020;28;20485;-79
2022/03/20 08:40:33;;;;;;;0.47;0.47;;;;;;;;;;5092280;28;20427;-78
2022/03/20 08:42:59;;;;;;;0.30;0.30;;;;;;;;;;5101770;28;20492;-79
2022/03/20 08:45:29;;;;;;;8.60;6.70;;;;;;;;;;5092519;28;20234;-79
2022/03/20 08:47:55;;;;;;;0.10;0.10;;;;;;;;;;5101622;28;20490;-79
2022/03/20 08:50:23;;;;;;;0.60;0.60;;;;;;;;;;5092270;28;20212;-79
2022/03/20 08:52:50;;;;;;;0.40;0.40;;;;;;;;;;5101560;28;20270;-79
2022/03/20 08:55:17;;;;;;;0.33;0.33;;;;;;;;;;5092315;28;20403;-79
2022/03/20 08:57:46;;;;;;;0.10;0.10;;;;;;;;;;5101806;28;20217;-78
2022/03/20 09:00:13;;;;;;;0.10;0.10;;;;;;;;;;5094455;28;20211;-78
2022/03/20 09:02:40;;;;;;;3.63;1.50;;;;;;;;;;5104952;28;20244;-79
2022/03/20 09:05:07;;;;;;;1.30;1.23;;;;;;;;;;5096171;28;20210;-78
2022/03/20 09:07:34;;;;;;;1.13;1.13;;;;;;;;;;5105146;28;20211;-80
2022/03/20 09:10:01;;;;;;;3.53;3.30;;;;;;;;;;5105891;28;20266;-78
2022/03/20 09:12:28;;;;;;;0.57;0.57;;;;;;;;;;5094561;28;20242;-79
2022/03/20 09:15:01;;;;;;;0.50;0.50;;;;;;;;;;5105621;28;20452;-78
2022/03/20 09:20:12;;;;;;;0.87;0.87;;;;;;;;;;5095592;28;20221;-78
2022/03/20 09:22:40;;;;;;;0.20;0.20;;;;;;;;;;5104796;28;20207;-78
2022/03/20 09:25:07;;;;;;;1.97;1.90;;;;;;;;;;5096784;28;20203;-78
2022/03/20 09:27:34;;;;;;;0.10;0.10;;;;;;;;;;5104567;28;20280;-79
2022/03/20 09:30:01;;;;;;;6.20;0.70;;;;;;;;;;5106021;28;20249;-78
2022/03/20 09:32:27;;;;;;;2.93;2.83;;;;;;;;;;5094182;28;20238;-80
2022/03/20 09:34:53;;;;;;;5.30;3.40;;;;;;;;;;5105633;28;20237;-79
2022/03/20 09:37:20;;;;;;;0.10;0.10;;;;;;;;;;5094062;28;20245;-80
2022/03/20 09:39:47;;;;;;;0.10;0.10;;;;;;;;;;5105304;28;20426;-79
2022/03/20 09:42:14;;;;;;;0.10;0.10;;;;;;;;;;5093625;28;20249;-79
2022/03/20 09:44:41;;;;;;;0.17;0.17;;;;;;;;;;5105092;28;20236;-78
2022/03/20 09:47:10;;;;;;;1.57;1.50;;;;;;;;;;5093795;28;20472;-77
2022/03/20 09:49:37;;;;;;;0.13;0.13;;;;;;;;;;5105065;28;20424;-78
2022/03/20 09:52:04;;;;;;;13.13;6.03;;;;;;;;;;5094282;28;20302;-78
2022/03/20 09:54:30;;;;;;;0.50;0.50;;;;;;;;;;5105129;28;20240;-79
2022/03/20 09:56:59;;;;;;;1.07;1.07;;;;;;;;;;5093673;28;20425;-79
2022/03/20 09:59:26;;;;;;;0.20;0.20;;;;;;;;;;5105060;28;20240;-79
2022/03/20 10:01:53;;;;;;;3.50;1.80;;;;;;;;;;5093717;28;20453;-78
2022/03/20 10:04:19;;;;;;;0.40;0.40;;;;;;;;;;5105000;28;20237;-79
2022/03/20 10:06:45;;;;;;;0.20;0.20;;;;;;;;;;5093257;28;20242;-77
2022/03/20 10:09:12;;;;;;;0.77;0.67;;;;;;;;;;5104517;28;20245;-77
2022/03/20 10:11:40;;;;;;;0.10;0.10;;;;;;;;;;5093322;28;20484;-70
2022/03/20 10:14:14;;;;;;;1.80;1.80;;;;;;;;;;5104085;28;20221;-71
2022/03/20 10:16:42;;;;;;;0.17;0.17;;;;;;;;;;5093376;28;20249;-71
2022/03/20 10:19:23;;;;;;;0.10;0.10;;;;;;;;;;5104516;28;20203;-70
2022/03/20 10:21:52;;;;;;;0.10;0.10;;;;;;;;;;5093120;28;20557;-71
2022/03/20 10:24:19;;;;;;;0.10;0.10;;;;;;;;;;5104271;28;20205;-68
2022/03/20 10:26:46;;;;;;;0.10;0.10;;;;;;;;;;5093415;28;20246;-67
2022/03/20 10:29:17;;;;;;;0.10;0.10;;;;;;;;;;5104738;28;20251;-67
2022/03/20 10:31:51;;;;;;;0.70;0.70;;;;;;;;;;5093103;28;20245;-74
2022/03/20 10:34:17;;;;;;;0.10;0.10;;;;;;;;;;5103801;28;20396;-79
2022/03/20 10:36:44;;;;;;;2.20;2.10;;;;;;;;;;5093344;28;20264;-76
2022/03/20 10:39:11;;;;;;;0.13;0.13;;;;;;;;;;5104034;28;20270;-73
2022/03/20 10:41:39;;;;;;;0.20;0.20;;;;;;;;;;5092595;28;20284;-75
2022/03/20 10:44:12;;;;;;;0.80;0.80;;;;;;;;;;5104159;28;20251;-76
2022/03/20 10:46:40;;;;;;;0.10;0.10;;;;;;;;;;5092970;28;20276;-73
2022/03/20 10:49:07;;;;;;;0.10;0.10;;;;;;;;;;5103576;28;20203;-76
2022/03/20 10:51:41;;;;;;;0.00;0.00;;;;;;;;;;5092733;28;20650;-73
2022/03/20 10:54:12;;;;;;;0.10;0.10;;;;;;;;;;5103993;28;20214;-74
2022/03/20 10:56:39;;;;;;;0.03;0.03;;;;;;;;;;5092764;28;20450;-73
2022/03/20 10:59:15;;;;;;;0.77;0.77;;;;;;;;;;5103395;28;20208;-75
2022/03/20 11:01:44;;;;;;;0.20;0.20;;;;;;;;;;5092706;28;20470;-76
2022/03/20 11:04:12;;;;;;;0.10;0.10;;;;;;;;;;5103899;28;20503;-79
2022/03/20 11:06:40;;;;;;;0.00;0.00;;;;;;;;;;5092439;28;20298;-75
2022/03/20 11:09:06;;;;;;;0.10;0.10;;;;;;;;;;5103970;28;20432;-77
2022/03/20 11:11:34;;;;;;;0.97;0.97;;;;;;;;;;5092548;28;20243;-76
2022/03/20 11:14:01;;;;;;;0.10;0.10;;;;;;;;;;5103539;28;20270;-75
2022/03/20 11:16:27;;;;;;;0.10;0.10;;;;;;;;;;5092418;28;20238;-75
2022/03/20 11:18:57;;;;;;;1.30;0.77;;;;;;;;;;5103446;28;20203;-77
2022/03/20 11:21:24;;;;;;;0.10;0.10;;;;;;;;;;5092309;28;20257;-77
2022/03/20 11:23:52;;;;;;;0.57;0.57;;;;;;;;;;5103359;28;20204;-77
2022/03/20 11:26:20;;;;;;;0.60;0.60;;;;;;;;;;5092454;28;20290;-69
2022/03/20 11:28:50;;;;;;;0.53;0.53;;;;;;;;;;5103277;28;20208;-68
2022/03/20 11:31:16;;;;;;;0.10;0.10;;;;;;;;;;5092148;28;20242;-67
2022/03/20 11:33:45;;;;;;;18.87;13.00;;;;;;;;;;5102998;28;20205;-65
2022/03/20 11:36:13;;;;;;;0.40;0.40;;;;;;;;;;5092561;28;20275;-67
2022/03/20 11:38:41;;;;;;;0.10;0.10;;;;;;;;;;5102938;28;20420;-65
2022/03/20 11:41:14;;;;;;;0.10;0.10;;;;;;;;;;5092610;28;20260;-72
2022/03/20 11:43:43;;;;;;;0.10;0.10;;;;;;;;;;5102714;28;20230;-74
2022/03/20 11:46:32;;;;;;;0.53;0.53;;;;;;;;;;5092241;28;20238;-74
2022/03/20 11:49:17;;;;;;;0.10;0.10;;;;;;;;;;5097589;28;20270;-78
2022/03/20 11:51:52;;;;;;;0.37;0.37;;;;;;;;;;5075180;28;20247;-74
2022/03/20 11:54:19;;;;;;;0.10;0.10;;;;;;;;;;5102871;28;20192;-78
2022/03/20 11:56:48;;;;;;;0.10;0.10;;;;;;;;;;5091619;28;20262;-76
2022/03/20 11:59:29;;;;;;;0.10;0.10;;;;;;;;;;5102761;28;20207;-74
2022/03/20 12:01:59;;;;;;;0.10;0.10;;;;;;;;;;5090888;28;20252;-76
2022/03/20 12:04:29;;;;;;;0.10;0.10;;;;;;;;;;5102691;28;20264;-71
2022/03/20 12:07:07;;;;;;;11.50;10.90;;;;;;;;;;5091433;28;20242;-70
2022/03/20 12:09:51;;;;;;;0.00;0.00;;;;;;;;;;5103057;28;20216;-73
2022/03/20 12:12:32;;;;;;;0.40;0.40;;;;;;;;;;5091667;28;20265;-69
2022/03/20 12:15:03;;;;;;;0.10;0.10;;;;;;;;;;5103147;28;20193;-69
2022/03/20 12:17:56;;;;;;;0.00;0.00;;;;;;;;;;5091671;28;20281;-68
2022/03/20 12:20:37;;;;;;;0.03;0.03;;;;;;;;;;5092340;28;20212;-68
2022/03/20 12:23:23;;;;;;;0.77;0.77;;;;;;;;;;5101587;28;20203;-76
2022/03/20 12:25:52;;;;;;;0.10;0.10;;;;;;;;;;5092615;28;20251;-80
2022/03/20 12:28:30;;;;;;;0.10;0.10;;;;;;;;;;5103483;28;20213;-80
2022/03/20 12:30:57;;;;;;;0.10;0.10;;;;;;;;;;5092914;28;20245;-80
2022/03/20 12:33:25;;;;;;;0.30;0.30;;;;;;;;;;5103664;28;20213;-80
2022/03/20 12:35:52;;;;;;;0.10;0.10;;;;;;;;;;5097698;28;20284;-80
2022/03/20 12:38:37;;;;;;;0.20;0.20;;;;;;;;;;5107712;28;20281;-81
2022/03/20 12:41:09;;;;;;;0.20;0.20;;;;;;;;;;5097353;28;20412;-80
2022/03/20 12:43:35;;;;;;;16.53;12.53;;;;;;;;;;5107237;28;20206;-79
2022/03/20 12:46:02;;;;;;;0.10;0.10;;;;;;;;;;5095999;28;20330;-73
2022/03/20 12:48:31;;;;;;;0.10;0.10;;;;;;;;;;5105788;28;20399;-73
2022/03/20 12:50:58;;;;;;;0.10;0.10;;;;;;;;;;5095813;28;20241;-73
2022/03/20 12:53:25;;;;;;;0.10;0.10;;;;;;;;;;5105872;28;20204;-75
2022/03/20 12:55:55;;;;;;;0.30;0.30;;;;;;;;;;5095628;28;20289;-77
2022/03/20 12:58:23;;;;;;;0.20;0.20;;;;;;;;;;5105684;28;20207;-76
2022/03/20 13:00:50;;;;;;;0.10;0.10;;;;;;;;;;5095903;28;20434;-76
2022/03/20 13:03:17;;;;;;;0.10;0.10;;;;;;;;;;5105902;28;20212;-75
2022/03/20 13:05:47;;;;;;;0.10;0.10;;;;;;;;;;5095748;28;20238;-79
2022/03/20 13:08:19;;;;;;;0.10;0.10;;;;;;;;;;5105377;28;20271;-77
2022/03/20 13:10:49;;;;;;;0.50;0.50;;;;;;;;;;5095630;28;20309;-76
2022/03/20 13:13:19;;;;;;;1.20;1.13;;;;;;;;;;5105127;28;20267;-77
2022/03/20 13:15:51;;;;;;;0.20;0.20;;;;;;;;;;5095382;28;20258;-78
2022/03/20 13:18:17;;;;;;;0.10;0.10;;;;;;;;;;5105429;28;20600;-78
2022/03/20 13:20:44;;;;;;;0.57;0.57;;;;;;;;;;5095557;28;20246;-77
2022/03/20 13:23:11;;;;;;;0.10;0.10;;;;;;;;;;5105420;28;20294;-75
2022/03/20 13:25:40;;;;;;;0.20;0.20;;;;;;;;;;5095625;28;20310;-77
2022/03/20 13:28:07;;;;;;;0.10;0.10;;;;;;;;;;5105286;28;20654;-75
2022/03/20 13:30:34;;;;;;;0.40;0.40;;;;;;;;;;5095589;28;20241;-76
2022/03/20 13:33:02;;;;;;;0.80;0.80;;;;;;;;;;5105221;28;20213;-77
2022/03/20 13:35:30;;;;;;;0.83;0.83;;;;;;;;;;5095218;28;20240;-77
2022/03/20 13:37:58;;;;;;;0.10;0.10;;;;;;;;;;5104975;28;20367;-75
2022/03/20 13:40:25;;;;;;;0.10;0.10;;;;;;;;;;5095515;28;20527;-73
2022/03/20 13:42:51;;;;;;;0.20;0.20;;;;;;;;;;5104833;28;20551;-69
2022/03/20 13:45:18;;;;;;;0.50;0.50;;;;;;;;;;5094546;28;20222;-73
2022/03/20 13:47:44;;;;;;;0.10;0.10;;;;;;;;;;5104312;28;20193;-73
2022/03/20 13:50:14;;;;;;;0.03;0.03;;;;;;;;;;5095399;28;20202;-72
2022/03/20 13:52:42;;;;;;;0.10;0.10;;;;;;;;;;5104199;28;20228;-72
2022/03/20 13:55:10;;;;;;;0.10;0.10;;;;;;;;;;5095075;28;20245;-72
2022/03/20 13:57:48;;;;;;;0.10;0.10;;;;;;;;;;5104061;28;20331;-72
2022/03/20 14:00:15;;;;;;;0.10;0.10;;;;;;;;;;5094139;28;20214;-72
2022/03/20 14:02:42;;;;;;;0.63;0.63;;;;;;;;;;5104366;28;20472;-72
2022/03/20 14:05:21;;;;;;;0.10;0.10;;;;;;;;;;5094757;28;20260;-73
2022/03/20 14:07:48;;;;;;;0.10;0.10;;;;;;;;;;5103781;28;20403;-74
2022/03/20 14:10:17;;;;;;;0.10;0.10;;;;;;;;;;5094878;28;20209;-73
2022/03/20 14:12:44;;;;;;;0.10;0.10;;;;;;;;;;5103776;28;20245;-74
2022/03/20 14:15:11;;;;;;;0.10;0.10;;;;;;;;;;5094741;28;20207;-74
2022/03/20 14:17:41;;;;;;;0.10;0.10;;;;;;;;;;5103809;28;20215;-71
2022/03/20 14:20:09;;;;;;;0.43;0.43;;;;;;;;;;5094721;28;20273;-77
2022/03/20 14:22:44;;;;;;;2.47;2.30;;;;;;;;;;5103766;28;20235;-78
2022/03/20 14:25:12;;;;;;;1.30;1.20;;;;;;;;;;5094506;28;20247;-78
2022/03/20 14:27:40;;;;;;;0.10;0.10;;;;;;;;;;5103798;28;20214;-76
2022/03/20 14:41:26;;;;;;;0.40;0.40;;;;;;;;;;5093167;28;20276;-69
2022/03/20 14:44:06;;;;;;;0.20;0.20;;;;;;;;;;5103763;28;20199;-71
2022/03/20 14:46:32;;;;;;;0.10;0.10;;;;;;;;;;5093128;28;20270;-73
2022/03/20 14:48:59;;;;;;;0.30;0.20;;;;;;;;;;5104095;28;20205;-73
2022/03/20 14:51:25;;;;;;;0.10;0.10;;;;;;;;;;5093115;28;20344;-74
2022/03/20 14:53:53;;;;;;;0.10;0.10;;;;;;;;;;5103526;28;20205;-73
2022/03/20 14:56:19;;;;;;;3.73;2.17;;;;;;;;;;5092243;28;20238;-74
2022/03/20 14:58:57;;;;;;;1.03;1.03;;;;;;;;;;5102922;28;20207;-75
2022/03/20 15:01:24;;;;;;;0.10;0.10;;;;;;;;;;5092770;28;20239;-76
2022/03/20 15:03:50;;;;;;;0.40;0.40;;;;;;;;;;5103387;28;20206;-74
2022/03/20 15:06:16;;;;;;;1.73;1.63;;;;;;;;;;5093193;28;20245;-77
2022/03/20 15:11:29;;;;;;;2.27;2.17;;;;;;;;;;5092807;28;20277;-79
2022/03/20 15:13:56;;;;;;;0.20;0.20;;;;;;;;;;5102923;28;20293;-79
2022/03/20 15:16:23;;;;;;;10.43;10.00;;;;;;;;;;5092585;28;20486;-77
2022/03/20 15:18:50;;;;;;;2.37;2.20;;;;;;;;;;5103258;28;20198;-77
2022/03/20 15:21:16;;;;;;;3.23;2.23;;;;;;;;;;5092635;28;20437;-78
2022/03/20 15:23:43;;;;;;;0.43;0.43;;;;;;;;;;5103307;28;20213;-77
2022/03/20 15:26:11;;;;;;;1.07;0.40;;;;;;;;;;5092848;28;20237;-76
2022/03/20 15:28:39;;;;;;;0.20;0.20;;;;;;;;;;5102881;28;20379;-78
2022/03/20 15:31:07;;;;;;;0.23;0.23;;;;;;;;;;5092719;28;20314;-79